createdAt,value
2023-02-07T00:00:07.259Z,1026.63
2023-02-07T00:01:08.566Z,1026.56
2023-02-07T00:02:07.971Z,1026.55
2023-02-07T00:03:09.334Z,1026.53
2023-02-07T00:04:08.676Z,1026.51
2023-02-07T00:05:09.003Z,1026.58
2023-02-07T00:06:09.388Z,1026.60
2023-02-07T00:07:09.754Z,1026.59
2023-02-07T00:08:10.140Z,1026.62
2023-02-07T00:09:10.855Z,1026.61
2023-02-07T00:10:10.728Z,1026.66
2023-02-07T00:11:10.996Z,1026.67
2023-02-07T00:12:11.448Z,1026.72
2023-02-07T00:13:11.826Z,1026.67
2023-02-07T00:14:12.134Z,1026.67
2023-02-07T00:15:12.405Z,1026.60
2023-02-07T00:16:12.717Z,1026.57
2023-02-07T00:17:14.082Z,1026.55
2023-02-07T00:18:13.589Z,1026.61
2023-02-07T00:19:13.423Z,1026.62
2023-02-07T00:20:13.696Z,1026.67
2023-02-07T00:21:14.092Z,1026.68
2023-02-07T00:22:14.490Z,1026.64
2023-02-07T00:23:15.215Z,1026.70
2023-02-07T00:24:15.033Z,1026.72
2023-02-07T00:25:15.406Z,1026.76
2023-02-07T00:26:15.736Z,1026.69
2023-02-07T00:27:17.270Z,1026.66
2023-02-07T00:28:16.324Z,1026.67
2023-02-07T00:29:16.204Z,1026.62
2023-02-07T00:30:16.266Z,1026.70
2023-02-07T00:31:16.884Z,1026.67
2023-02-07T00:32:16.767Z,1026.68
2023-02-07T00:33:17.161Z,1026.71
2023-02-07T00:34:17.589Z,1026.72
2023-02-07T00:35:17.973Z,1026.73
2023-02-07T00:36:17.969Z,1026.71
2023-02-07T00:37:18.409Z,1026.63
2023-02-07T00:38:18.817Z,1026.59
2023-02-07T00:39:19.149Z,1026.55
2023-02-07T00:40:20.438Z,1026.51
2023-02-07T00:41:19.745Z,1026.54
2023-02-07T00:42:20.181Z,1026.58
2023-02-07T00:43:29.383Z,1026.57
2023-02-07T00:44:20.875Z,1026.60
2023-02-07T00:45:21.371Z,1026.62
2023-02-07T00:46:21.791Z,1026.59
2023-02-07T00:47:22.215Z,1026.61
2023-02-07T00:48:22.679Z,1026.43
2023-02-07T00:49:38.676Z,1026.36
2023-02-07T00:50:22.581Z,1026.35
2023-02-07T00:51:23.484Z,1026.29
2023-02-07T00:52:23.584Z,1026.28
2023-02-07T00:53:23.623Z,1026.35
2023-02-07T00:54:25.601Z,1026.42
2023-02-07T00:55:24.865Z,1026.43
2023-02-07T00:56:25.281Z,1026.42
2023-02-07T00:57:26.629Z,1026.44
2023-02-07T00:58:24.928Z,1026.43
2023-02-07T00:59:25.514Z,1026.41
2023-02-07T01:00:26.314Z,1026.36
2023-02-07T01:01:26.632Z,1026.23
2023-02-07T01:02:27.983Z,1026.26
2023-02-07T01:03:28.314Z,1026.20
2023-02-07T01:04:27.625Z,1026.20
2023-02-07T01:05:28.945Z,1026.14
2023-02-07T01:06:28.382Z,1026.11
2023-02-07T01:07:27.881Z,1026.10
2023-02-07T01:08:28.269Z,1026.08
2023-02-07T01:09:28.555Z,1026.14
2023-02-07T01:10:28.842Z,1026.19
2023-02-07T01:11:29.373Z,1026.26
2023-02-07T01:12:29.342Z,1026.19
2023-02-07T01:13:29.759Z,1026.14
2023-02-07T01:14:31.918Z,1026.15
2023-02-07T01:15:30.374Z,1026.11
2023-02-07T01:16:30.709Z,1026.10
2023-02-07T01:17:33.184Z,1026.10
2023-02-07T01:18:32.181Z,1026.11
2023-02-07T01:19:33.563Z,1026.08
2023-02-07T01:21:26.618Z,1026.09
2023-02-07T01:22:25.744Z,1026.16
2023-02-07T01:23:25.717Z,1026.14
2023-02-07T01:24:26.346Z,1026.12
2023-02-07T01:25:26.363Z,1026.11
2023-02-07T01:26:27.175Z,1026.13
2023-02-07T01:27:26.533Z,1026.11
2023-02-07T01:28:27.871Z,1026.14
2023-02-07T01:29:29.152Z,1026.14
2023-02-07T01:30:28.474Z,1026.10
2023-02-07T01:31:27.923Z,1026.12
2023-02-07T01:32:30.324Z,1026.12
2023-02-07T01:33:28.683Z,1026.10
2023-02-07T01:34:29.030Z,1026.12
2023-02-07T01:35:29.423Z,1026.12
2023-02-07T01:36:29.942Z,1026.07
2023-02-07T01:37:30.873Z,1025.98
2023-02-07T01:38:30.349Z,1026.10
2023-02-07T01:39:30.731Z,1026.02
2023-02-07T01:40:31.036Z,1026.06
2023-02-07T01:41:31.298Z,1026.08
2023-02-07T01:42:31.840Z,1026.12
2023-02-07T01:43:32.869Z,1026.11
2023-02-07T01:44:32.300Z,1026.11
2023-02-07T01:45:32.847Z,1026.09
2023-02-07T01:46:33.846Z,1026.07
2023-02-07T01:47:33.770Z,1026.05
2023-02-07T01:48:33.122Z,1026.03
2023-02-07T01:49:33.602Z,1026.00
2023-02-07T01:50:46.624Z,1026.01
2023-02-07T01:51:35.794Z,1025.97
2023-02-07T01:52:47.256Z,1025.98
2023-02-07T01:53:35.360Z,1025.97
2023-02-07T01:54:35.337Z,1026.02
2023-02-07T01:55:35.911Z,1025.91
2023-02-07T01:56:37.055Z,1025.94
2023-02-07T01:57:36.822Z,1025.95
2023-02-07T01:58:36.217Z,1025.92
2023-02-07T01:59:36.561Z,1025.94
2023-02-07T02:00:37.029Z,1025.89
2023-02-07T02:01:37.007Z,1025.91
2023-02-07T02:02:37.618Z,1025.89
2023-02-07T02:03:37.620Z,1025.85
2023-02-07T02:04:37.401Z,1025.91
2023-02-07T02:05:37.911Z,1025.87
2023-02-07T02:06:37.859Z,1025.89
2023-02-07T02:07:38.149Z,1025.89
2023-02-07T02:08:38.450Z,1025.89
2023-02-07T02:09:38.752Z,1025.90
2023-02-07T02:10:39.034Z,1025.83
2023-02-07T02:11:39.337Z,1025.78
2023-02-07T02:12:39.614Z,1025.77
2023-02-07T02:13:39.889Z,1025.81
2023-02-07T02:14:40.247Z,1025.86
2023-02-07T02:15:40.925Z,1025.86
2023-02-07T02:16:40.920Z,1025.84
2023-02-07T02:17:42.203Z,1025.86
2023-02-07T02:18:41.539Z,1025.82
2023-02-07T02:19:42.921Z,1025.88
2023-02-07T02:20:42.472Z,1025.93
2023-02-07T02:21:42.228Z,1025.92
2023-02-07T02:22:42.583Z,1025.87
2023-02-07T02:23:43.019Z,1025.82
2023-02-07T02:24:43.369Z,1025.86
2023-02-07T02:25:43.734Z,1025.82
2023-02-07T02:26:44.075Z,1025.80
2023-02-07T02:27:45.501Z,1025.90
2023-02-07T02:28:45.563Z,1025.92
2023-02-07T02:29:45.817Z,1025.83
2023-02-07T02:30:45.237Z,1025.84
2023-02-07T02:31:45.666Z,1025.93
2023-02-07T02:32:46.120Z,1025.88
2023-02-07T02:33:47.484Z,1025.94
2023-02-07T02:34:46.835Z,1025.95
2023-02-07T02:35:48.172Z,1025.90
2023-02-07T02:36:48.494Z,1025.90
2023-02-07T02:37:47.860Z,1025.93
2023-02-07T02:38:47.819Z,1025.86
2023-02-07T02:39:48.295Z,1025.87
2023-02-07T02:40:48.071Z,1025.86
2023-02-07T02:41:49.316Z,1025.90
2023-02-07T02:42:48.613Z,1025.90
2023-02-07T02:43:48.947Z,1025.92
2023-02-07T02:44:49.371Z,1025.97
2023-02-07T02:45:49.718Z,1026.00
2023-02-07T02:46:50.018Z,1025.97
2023-02-07T02:47:50.335Z,1026.00
2023-02-07T02:48:50.719Z,1025.98
2023-02-07T02:49:51.045Z,1025.95
2023-02-07T02:50:51.356Z,1025.92
2023-02-07T02:51:51.808Z,1025.94
2023-02-07T02:52:52.109Z,1025.85
2023-02-07T02:53:52.505Z,1025.84
2023-02-07T02:54:52.826Z,1025.86
2023-02-07T02:55:53.120Z,1025.85
2023-02-07T02:56:53.511Z,1025.94
2023-02-07T02:57:53.805Z,1025.93
2023-02-07T02:58:54.119Z,1026.00
2023-02-07T02:59:54.584Z,1025.98
2023-02-07T03:00:55.103Z,1025.90
2023-02-07T03:01:54.989Z,1025.99
2023-02-07T03:02:55.370Z,1025.91
2023-02-07T03:03:55.684Z,1026.05
2023-02-07T03:04:57.032Z,1026.00
2023-02-07T03:05:56.472Z,1025.99
2023-02-07T03:06:56.762Z,1025.98
2023-02-07T03:07:57.042Z,1025.92
2023-02-07T03:08:58.320Z,1025.94
2023-02-07T03:09:57.581Z,1025.98
2023-02-07T03:10:57.875Z,1025.93
2023-02-07T03:11:58.154Z,1025.90
2023-02-07T03:12:58.448Z,1025.91
2023-02-07T03:13:58.721Z,1025.88
2023-02-07T03:14:59.124Z,1025.86
2023-02-07T03:15:59.460Z,1025.82
2023-02-07T03:17:00.697Z,1025.83
2023-02-07T03:18:00.115Z,1025.77
2023-02-07T03:19:00.449Z,1025.87
2023-02-07T03:20:00.709Z,1025.84
2023-02-07T03:21:01.553Z,1025.84
2023-02-07T03:22:01.348Z,1025.81
2023-02-07T03:23:02.195Z,1025.79
2023-02-07T03:24:02.812Z,1025.83
2023-02-07T03:25:03.016Z,1025.77
2023-02-07T03:26:03.220Z,1025.79
2023-02-07T03:27:03.470Z,1025.77
2023-02-07T03:28:03.747Z,1025.72
2023-02-07T03:29:03.905Z,1025.63
2023-02-07T03:30:04.028Z,1025.57
2023-02-07T03:31:05.756Z,1025.52
2023-02-07T03:32:04.272Z,1025.59
2023-02-07T03:33:04.977Z,1025.55
2023-02-07T03:34:05.208Z,1025.55
2023-02-07T03:35:05.608Z,1025.51
2023-02-07T03:36:05.954Z,1025.51
2023-02-07T03:37:06.545Z,1025.42
2023-02-07T03:38:06.570Z,1025.43
2023-02-07T03:39:06.881Z,1025.46
2023-02-07T03:40:07.287Z,1025.51
2023-02-07T03:41:07.594Z,1025.52
2023-02-07T03:42:07.972Z,1025.55
2023-02-07T03:43:08.223Z,1025.50
2023-02-07T03:44:08.449Z,1025.55
2023-02-07T03:45:08.788Z,1025.52
2023-02-07T03:46:08.943Z,1025.54
2023-02-07T03:47:09.231Z,1025.49
2023-02-07T03:48:09.566Z,1025.54
2023-02-07T03:49:09.823Z,1025.50
2023-02-07T03:50:10.150Z,1025.46
2023-02-07T03:51:09.706Z,1025.44
2023-02-07T03:52:09.663Z,1025.50
2023-02-07T03:53:10.008Z,1025.52
2023-02-07T03:54:10.334Z,1025.56
2023-02-07T03:55:10.644Z,1025.53
2023-02-07T03:56:10.940Z,1025.58
2023-02-07T03:57:12.445Z,1025.53
2023-02-07T03:58:11.859Z,1025.50
2023-02-07T03:59:13.653Z,1025.49
2023-02-07T04:00:12.531Z,1025.56
2023-02-07T04:01:12.915Z,1025.53
2023-02-07T04:02:14.334Z,1025.60
2023-02-07T04:03:13.670Z,1025.62
2023-02-07T04:04:13.684Z,1025.61
2023-02-07T04:05:13.987Z,1025.53
2023-02-07T04:06:15.462Z,1025.51
2023-02-07T04:07:15.824Z,1025.52
2023-02-07T04:08:15.148Z,1025.46
2023-02-07T04:09:15.466Z,1025.45
2023-02-07T04:10:15.786Z,1025.49
2023-02-07T04:11:16.137Z,1025.44
2023-02-07T04:12:16.451Z,1025.47
2023-02-07T04:13:16.732Z,1025.50
2023-02-07T04:14:17.095Z,1025.49
2023-02-07T04:15:17.434Z,1025.49
2023-02-07T04:16:19.239Z,1025.51
2023-02-07T04:17:19.044Z,1025.59
2023-02-07T04:18:18.348Z,1025.66
2023-02-07T04:19:19.592Z,1025.58
2023-02-07T04:20:18.929Z,1025.67
2023-02-07T04:21:19.341Z,1025.67
2023-02-07T04:22:19.903Z,1025.67
2023-02-07T04:23:19.725Z,1025.63
2023-02-07T04:24:20.022Z,1025.63
2023-02-07T04:25:21.291Z,1025.61
2023-02-07T04:26:21.666Z,1025.67
2023-02-07T04:27:21.999Z,1025.66
2023-02-07T04:28:23.432Z,1025.67
2023-02-07T04:29:21.280Z,1025.63
2023-02-07T04:30:22.631Z,1025.70
2023-02-07T04:31:22.011Z,1025.71
2023-02-07T04:32:22.390Z,1025.77
2023-02-07T04:33:22.752Z,1025.73
2023-02-07T04:34:23.098Z,1025.73
2023-02-07T04:35:24.337Z,1025.70
2023-02-07T04:36:23.704Z,1025.66
2023-02-07T04:37:25.100Z,1025.65
2023-02-07T04:38:23.955Z,1025.76
2023-02-07T04:39:24.409Z,1025.76
2023-02-07T04:40:25.816Z,1025.81
2023-02-07T04:41:24.819Z,1025.78
2023-02-07T04:42:25.162Z,1025.77
2023-02-07T04:43:25.468Z,1025.76
2023-02-07T04:44:25.851Z,1025.77
2023-02-07T04:45:26.304Z,1025.83
2023-02-07T04:46:26.243Z,1025.87
2023-02-07T04:47:27.549Z,1025.98
2023-02-07T04:48:26.868Z,1025.92
2023-02-07T04:49:41.224Z,1025.80
2023-02-07T04:50:28.576Z,1025.84
2023-02-07T04:51:28.000Z,1025.79
2023-02-07T04:52:28.258Z,1025.82
2023-02-07T04:53:29.493Z,1025.81
2023-02-07T04:54:28.749Z,1025.80
2023-02-07T04:55:29.068Z,1025.80
2023-02-07T04:56:30.321Z,1025.82
2023-02-07T04:57:30.522Z,1025.79
2023-02-07T04:58:29.746Z,1025.84
2023-02-07T04:59:30.941Z,1025.90
2023-02-07T05:00:30.215Z,1025.90
2023-02-07T05:01:30.521Z,1025.87
2023-02-07T05:02:31.765Z,1025.92
2023-02-07T05:03:30.994Z,1025.96
2023-02-07T05:04:32.181Z,1025.95
2023-02-07T05:05:32.441Z,1026.04
2023-02-07T05:06:31.744Z,1026.02
2023-02-07T05:07:32.948Z,1026.10
2023-02-07T05:08:32.158Z,1026.07
2023-02-07T05:09:32.411Z,1026.06
2023-02-07T05:10:32.746Z,1026.08
2023-02-07T05:11:33.944Z,1026.06
2023-02-07T05:12:33.184Z,1025.99
2023-02-07T05:13:33.438Z,1026.06
2023-02-07T05:14:33.731Z,1026.02
2023-02-07T05:15:34.005Z,1026.03
2023-02-07T05:16:34.285Z,1026.04
2023-02-07T05:17:34.550Z,1026.05
2023-02-07T05:18:34.834Z,1026.08
2023-02-07T05:19:35.309Z,1026.04
2023-02-07T05:20:35.582Z,1026.12
2023-02-07T05:21:35.828Z,1026.16
2023-02-07T05:22:36.214Z,1026.15
2023-02-07T05:23:36.562Z,1026.19
2023-02-07T05:24:36.804Z,1026.10
2023-02-07T05:25:37.413Z,1026.08
2023-02-07T05:26:39.376Z,1026.08
2023-02-07T05:27:37.550Z,1026.14
2023-02-07T05:28:37.813Z,1026.14
2023-02-07T05:29:39.012Z,1026.12
2023-02-07T05:30:38.379Z,1026.18
2023-02-07T05:31:38.807Z,1026.11
2023-02-07T05:32:39.131Z,1026.18
2023-02-07T05:33:39.412Z,1026.17
2023-02-07T05:34:39.631Z,1026.26
2023-02-07T05:35:40.990Z,1026.23
2023-02-07T05:36:40.270Z,1026.31
2023-02-07T05:37:40.562Z,1026.28
2023-02-07T05:38:40.937Z,1026.28
2023-02-07T05:39:41.154Z,1026.25
2023-02-07T05:40:41.404Z,1026.21
2023-02-07T05:41:41.679Z,1026.26
2023-02-07T05:42:41.901Z,1026.22
2023-02-07T05:43:42.152Z,1026.24
2023-02-07T05:44:42.377Z,1026.22
2023-02-07T05:45:42.638Z,1026.21
2023-02-07T05:46:43.846Z,1026.22
2023-02-07T05:47:43.092Z,1026.27
2023-02-07T05:48:43.397Z,1026.18
2023-02-07T05:49:43.688Z,1026.23
2023-02-07T05:50:43.934Z,1026.22
2023-02-07T05:51:45.205Z,1026.20
2023-02-07T05:52:44.429Z,1026.17
2023-02-07T05:53:44.888Z,1026.15
2023-02-07T05:54:45.145Z,1026.20
2023-02-07T05:55:45.425Z,1026.11
2023-02-07T05:56:46.619Z,1026.14
2023-02-07T05:57:45.826Z,1026.09
2023-02-07T05:58:46.106Z,1026.16
2023-02-07T05:59:47.250Z,1026.11
2023-02-07T06:00:46.527Z,1026.22
2023-02-07T06:01:46.811Z,1026.21
2023-02-07T06:02:47.224Z,1026.18
2023-02-07T06:03:47.185Z,1026.25
2023-02-07T06:04:47.472Z,1026.24
2023-02-07T06:05:47.695Z,1026.27
2023-02-07T06:06:48.911Z,1026.26
2023-02-07T06:07:48.187Z,1026.36
2023-02-07T06:08:48.473Z,1026.29
2023-02-07T06:09:48.725Z,1026.35
2023-02-07T06:10:48.989Z,1026.31
2023-02-07T06:11:50.184Z,1026.23
2023-02-07T06:12:49.442Z,1026.25
2023-02-07T06:13:49.679Z,1026.23
2023-02-07T06:14:49.964Z,1026.28
2023-02-07T06:15:50.228Z,1026.27
2023-02-07T06:16:51.483Z,1026.27
2023-02-07T06:17:50.737Z,1026.24
2023-02-07T06:18:51.004Z,1026.21
2023-02-07T06:19:53.532Z,1026.18
2023-02-07T06:20:51.423Z,1026.23
2023-02-07T06:21:51.683Z,1026.17
2023-02-07T06:22:52.285Z,1026.19
2023-02-07T06:23:52.258Z,1026.22
2023-02-07T06:24:52.119Z,1026.25
2023-02-07T06:25:52.510Z,1026.27
2023-02-07T06:26:52.628Z,1026.25
2023-02-07T06:27:53.067Z,1026.22
2023-02-07T06:28:53.622Z,1026.23
2023-02-07T06:29:53.433Z,1026.20
2023-02-07T06:30:53.924Z,1026.23
2023-02-07T06:31:53.869Z,1026.25
2023-02-07T06:32:54.569Z,1026.25
2023-02-07T06:33:54.383Z,1026.22
2023-02-07T06:34:54.929Z,1026.24
2023-02-07T06:35:54.805Z,1026.22
2023-02-07T06:36:55.458Z,1026.28
2023-02-07T06:37:55.791Z,1026.25
2023-02-07T06:38:55.811Z,1026.22
2023-02-07T06:39:55.736Z,1026.26
2023-02-07T06:40:56.298Z,1026.29
2023-02-07T06:41:57.020Z,1026.31
2023-02-07T06:42:57.194Z,1026.33
2023-02-07T06:43:56.876Z,1026.25
2023-02-07T06:44:57.043Z,1026.31
2023-02-07T06:45:57.015Z,1026.31
2023-02-07T06:46:57.006Z,1026.33
2023-02-07T06:47:59.525Z,1026.31
2023-02-07T06:48:57.514Z,1026.30
2023-02-07T06:49:57.855Z,1026.25
2023-02-07T06:50:58.991Z,1026.29
2023-02-07T06:51:58.640Z,1026.31
2023-02-07T06:52:59.220Z,1026.26
2023-02-07T06:53:59.220Z,1026.28
2023-02-07T06:54:59.993Z,1026.25
2023-02-07T06:55:59.849Z,1026.26
2023-02-07T06:57:00.458Z,1026.25
2023-02-07T06:58:02.297Z,1026.22
2023-02-07T06:59:00.845Z,1026.23
2023-02-07T07:00:01.332Z,1026.25
2023-02-07T07:01:01.367Z,1026.27
2023-02-07T07:02:02.010Z,1026.29
2023-02-07T07:03:01.408Z,1026.26
2023-02-07T07:04:02.959Z,1026.28
2023-02-07T07:05:01.813Z,1026.30
2023-02-07T07:06:03.926Z,1026.26
2023-02-07T07:07:03.180Z,1026.27
2023-02-07T07:08:02.797Z,1026.32
2023-02-07T07:09:03.592Z,1026.31
2023-02-07T07:10:03.011Z,1026.34
2023-02-07T07:11:03.576Z,1026.38
2023-02-07T07:12:03.644Z,1026.44
2023-02-07T07:13:04.164Z,1026.39
2023-02-07T07:14:04.178Z,1026.40
2023-02-07T07:15:04.224Z,1026.39
2023-02-07T07:16:04.895Z,1026.43
2023-02-07T07:17:06.169Z,1026.42
2023-02-07T07:18:05.139Z,1026.45
2023-02-07T07:19:05.485Z,1026.56
2023-02-07T07:20:06.195Z,1026.57
2023-02-07T07:21:06.711Z,1026.49
2023-02-07T07:22:06.602Z,1026.54
2023-02-07T07:23:07.996Z,1026.53
2023-02-07T07:24:07.225Z,1026.57
2023-02-07T07:25:07.492Z,1026.60
2023-02-07T07:26:07.446Z,1026.62
2023-02-07T07:27:08.322Z,1026.55
2023-02-07T07:28:08.230Z,1026.57
2023-02-07T07:29:08.298Z,1026.60
2023-02-07T07:30:10.612Z,1026.65
2023-02-07T07:31:08.544Z,1026.74
2023-02-07T07:32:09.504Z,1026.71
2023-02-07T07:33:09.471Z,1026.71
2023-02-07T07:34:09.948Z,1026.71
2023-02-07T07:35:10.728Z,1026.75
2023-02-07T07:36:11.015Z,1026.78
2023-02-07T07:37:10.486Z,1026.86
2023-02-07T07:38:11.839Z,1026.84
2023-02-07T07:39:11.336Z,1026.90
2023-02-07T07:40:11.181Z,1026.88
2023-02-07T07:41:11.725Z,1026.86
2023-02-07T07:42:11.629Z,1026.89
2023-02-07T07:43:11.908Z,1026.89
2023-02-07T07:44:11.742Z,1026.89
2023-02-07T07:45:13.018Z,1026.91
2023-02-07T07:46:13.619Z,1027.03
2023-02-07T07:47:12.773Z,1027.01
2023-02-07T07:48:12.874Z,1027.00
2023-02-07T07:49:12.730Z,1027.02
2023-02-07T07:50:13.063Z,1027.01
2023-02-07T07:51:13.403Z,1026.96
2023-02-07T07:52:13.655Z,1027.00
2023-02-07T07:53:14.506Z,1026.99
2023-02-07T07:54:14.559Z,1026.92
2023-02-07T07:55:14.436Z,1027.00
2023-02-07T07:56:14.783Z,1027.01
2023-02-07T07:57:16.280Z,1026.96
2023-02-07T07:58:15.848Z,1026.96
2023-02-07T07:59:23.658Z,1026.93
2023-02-07T08:00:16.225Z,1026.96
2023-02-07T08:01:16.363Z,1026.97
2023-02-07T08:02:16.481Z,1026.97
2023-02-07T08:03:16.835Z,1027.00
2023-02-07T08:04:17.526Z,1026.94
2023-02-07T08:05:17.427Z,1026.87
2023-02-07T08:06:17.850Z,1026.90
2023-02-07T08:07:18.337Z,1026.86
2023-02-07T08:08:18.547Z,1026.94
2023-02-07T08:09:18.664Z,1026.94
2023-02-07T08:10:19.099Z,1026.95
2023-02-07T08:11:19.540Z,1026.90
2023-02-07T08:12:19.897Z,1026.86
2023-02-07T08:13:19.745Z,1026.89
2023-02-07T08:14:19.980Z,1026.89
2023-02-07T08:15:19.916Z,1026.92
2023-02-07T08:16:21.587Z,1026.92
2023-02-07T08:17:21.163Z,1026.88
2023-02-07T08:18:20.988Z,1026.91
2023-02-07T08:19:20.912Z,1026.92
2023-02-07T08:20:21.305Z,1026.84
2023-02-07T08:21:22.023Z,1026.82
2023-02-07T08:22:22.560Z,1026.85
2023-02-07T08:23:22.322Z,1026.83
2023-02-07T08:24:22.858Z,1026.85
2023-02-07T08:25:23.530Z,1026.79
2023-02-07T08:26:23.761Z,1026.77
2023-02-07T08:27:23.687Z,1026.76
2023-02-07T08:28:24.100Z,1026.77
2023-02-07T08:29:24.427Z,1026.82
2023-02-07T08:30:25.651Z,1026.86
2023-02-07T08:31:26.405Z,1026.84
2023-02-07T08:32:25.251Z,1026.90
2023-02-07T08:33:24.955Z,1026.91
2023-02-07T08:34:24.737Z,1026.88
2023-02-07T08:35:24.989Z,1026.87
2023-02-07T08:36:29.280Z,1026.84
2023-02-07T08:41:26.095Z,1026.87
2023-02-07T08:42:27.071Z,1026.86
2023-02-07T08:43:26.545Z,1026.88
2023-02-07T08:44:26.499Z,1026.92
2023-02-07T08:45:27.209Z,1026.90
2023-02-07T08:46:27.238Z,1026.85
2023-02-07T08:47:27.267Z,1026.86
2023-02-07T08:48:27.583Z,1026.87
2023-02-07T08:49:27.516Z,1026.92
2023-02-07T08:50:28.207Z,1026.91
2023-02-07T08:51:28.963Z,1026.86
2023-02-07T08:52:29.771Z,1026.88
2023-02-07T08:53:29.024Z,1026.91
2023-02-07T08:54:29.048Z,1026.92
2023-02-07T08:55:29.269Z,1026.92
2023-02-07T08:56:29.698Z,1026.91
2023-02-07T08:57:29.771Z,1026.87
2023-02-07T08:58:30.416Z,1026.91
2023-02-07T08:59:31.718Z,1026.85
2023-02-07T09:00:31.183Z,1026.86
2023-02-07T09:01:31.306Z,1026.86
2023-02-07T09:02:31.639Z,1026.88
2023-02-07T09:03:31.484Z,1026.86
2023-02-07T09:04:31.737Z,1026.88
2023-02-07T09:05:32.772Z,1026.84
2023-02-07T09:06:33.156Z,1026.83
2023-02-07T09:07:33.065Z,1026.77
2023-02-07T09:08:33.113Z,1026.76
2023-02-07T09:09:34.113Z,1026.82
2023-02-07T09:10:33.788Z,1026.82
2023-02-07T09:11:33.292Z,1026.78
2023-02-07T09:12:33.437Z,1026.81
2023-02-07T09:13:33.605Z,1026.85
2023-02-07T09:14:33.938Z,1026.79
2023-02-07T09:15:34.133Z,1026.83
2023-02-07T09:16:37.178Z,1026.80
2023-02-07T09:20:31.730Z,1026.77
2023-02-07T09:21:17.452Z,1026.77
2023-02-07T09:22:16.919Z,1026.75
2023-02-07T09:23:14.968Z,1026.78
2023-02-07T09:24:16.969Z,1026.72
2023-02-07T09:25:17.262Z,1026.73
2023-02-07T09:26:15.506Z,1026.73
2023-02-07T09:27:15.767Z,1026.70
2023-02-07T09:28:16.853Z,1026.75
2023-02-07T09:29:16.528Z,1026.76
2023-02-07T09:30:15.955Z,1026.72
2023-02-07T09:31:15.805Z,1026.69
2023-02-07T09:32:15.788Z,1026.66
2023-02-07T09:33:16.807Z,1026.70
2023-02-07T09:34:16.962Z,1026.69
2023-02-07T09:35:16.879Z,1026.67
2023-02-07T09:36:19.225Z,1026.65
2023-02-07T09:37:17.812Z,1026.61
2023-02-07T09:38:18.109Z,1026.69
2023-02-07T09:39:19.600Z,1026.62
2023-02-07T09:40:18.587Z,1026.72
2023-02-07T09:41:21.286Z,1026.73
2023-02-07T09:42:19.180Z,1026.67
2023-02-07T09:43:19.791Z,1026.68
2023-02-07T09:44:19.044Z,1026.68
2023-02-07T09:45:23.381Z,1026.65
2023-02-07T09:46:22.719Z,1026.61
2023-02-07T09:47:23.162Z,1026.64
2023-02-07T09:48:24.264Z,1026.61
2023-02-07T09:49:20.659Z,1026.61
2023-02-07T09:50:21.799Z,1026.66
2023-02-07T09:51:23.191Z,1026.66
2023-02-07T09:52:24.185Z,1026.74
2023-02-07T09:53:21.632Z,1026.67
2023-02-07T09:54:26.521Z,1026.65
2023-02-07T09:55:23.357Z,1026.71
2023-02-07T09:56:25.313Z,1026.75
2023-02-07T09:57:28.171Z,1026.72
2023-02-07T09:58:50.748Z,1026.78
2023-02-07T10:00:01.387Z,1026.69
2023-02-07T10:00:55.228Z,1026.69
2023-02-07T10:08:41.072Z,1026.71
2023-02-07T10:09:37.069Z,1026.76
2023-02-07T10:10:38.355Z,1026.76
2023-02-07T10:11:38.426Z,1026.73
2023-02-07T10:12:36.785Z,1026.80
2023-02-07T10:13:33.616Z,1026.76
2023-02-07T10:14:35.864Z,1026.74
2023-02-07T10:15:35.532Z,1026.73
2023-02-07T10:16:39.193Z,1026.72
2023-02-07T10:17:37.635Z,1026.73
2023-02-07T10:19:54.978Z,1026.71
2023-02-07T10:20:39.308Z,1026.70
2023-02-07T10:21:45.983Z,1026.71
2023-02-07T10:28:36.416Z,1026.61
2023-02-07T10:29:37.960Z,1026.58
2023-02-07T10:33:19.098Z,1026.57
2023-02-07T10:47:06.752Z,1026.47
2023-02-07T10:48:02.048Z,1026.48
2023-02-07T10:48:59.417Z,1026.47
2023-02-07T10:49:57.445Z,1026.48
2023-02-07T10:50:58.959Z,1026.48
2023-02-07T10:51:59.001Z,1026.47
2023-02-07T10:52:57.849Z,1026.48
2023-02-07T10:54:02.402Z,1026.37
2023-02-07T10:55:00.903Z,1026.37
2023-02-07T10:55:58.829Z,1026.36
2023-02-07T10:57:02.149Z,1026.39
2023-02-07T10:58:11.448Z,1026.33
2023-02-07T10:59:02.344Z,1026.33
2023-02-07T11:00:00.410Z,1026.43
2023-02-07T11:01:00.430Z,1026.37
2023-02-07T11:01:58.822Z,1026.27
2023-02-07T11:03:01.470Z,1026.28
2023-02-07T11:04:00.642Z,1026.32
2023-02-07T11:05:02.261Z,1026.25
2023-02-07T11:06:00.537Z,1026.24
2023-02-07T11:07:00.332Z,1026.31
2023-02-07T11:08:10.131Z,1026.27
2023-02-07T11:10:48.448Z,1026.26
2023-02-07T11:14:22.826Z,1026.26
2023-02-07T11:15:19.743Z,1026.33
2023-02-07T11:17:32.815Z,1026.26
2023-02-07T11:18:19.171Z,1026.25
2023-02-07T11:19:22.158Z,1026.25
2023-02-07T11:20:19.432Z,1026.23
2023-02-07T11:21:19.427Z,1026.22
2023-02-07T11:22:20.045Z,1026.16
2023-02-07T11:23:20.117Z,1026.16
2023-02-07T11:24:20.182Z,1026.16
2023-02-07T11:25:19.935Z,1026.18
2023-02-07T11:26:20.211Z,1026.14
2023-02-07T11:27:20.456Z,1026.07
2023-02-07T11:28:20.668Z,1026.06
2023-02-07T11:29:20.190Z,1026.04
2023-02-07T11:30:21.825Z,1026.03
2023-02-07T11:31:20.673Z,1026.03
2023-02-07T11:32:21.508Z,1026.02
2023-02-07T11:33:20.774Z,1025.97
2023-02-07T11:34:20.642Z,1025.93
2023-02-07T11:35:21.766Z,1026.01
2023-02-07T11:36:21.439Z,1025.97
2023-02-07T11:37:22.476Z,1025.95
2023-02-07T11:38:21.369Z,1025.95
2023-02-07T11:39:22.323Z,1025.87
2023-02-07T11:40:22.639Z,1025.94
2023-02-07T11:41:22.175Z,1025.91
2023-02-07T11:42:24.018Z,1025.93
2023-02-07T11:43:25.214Z,1025.92
2023-02-07T11:44:22.392Z,1025.91
2023-02-07T11:45:22.843Z,1025.92
2023-02-07T11:46:23.253Z,1025.93
2023-02-07T11:47:23.609Z,1025.89
2023-02-07T11:48:23.810Z,1025.85
2023-02-07T11:49:26.340Z,1025.90
2023-02-07T11:50:24.302Z,1025.84
2023-02-07T11:51:24.054Z,1025.87
2023-02-07T11:52:24.104Z,1025.86
2023-02-07T11:53:37.677Z,1025.90
2023-02-07T11:58:51.506Z,1025.98
2023-02-07T12:00:00.768Z,1025.98
2023-02-07T12:00:51.228Z,1025.97
2023-02-07T12:10:09.877Z,1025.90
2023-02-07T12:13:34.773Z,1025.99
2023-02-07T12:14:36.535Z,1025.91
2023-02-07T12:15:36.994Z,1025.95
2023-02-07T12:16:36.260Z,1026.00
2023-02-07T12:22:28.543Z,1025.89
2023-02-07T12:23:40.472Z,1025.87
2023-02-07T12:24:17.658Z,1025.89
2023-02-07T12:25:15.598Z,1025.88
2023-02-07T12:26:15.930Z,1025.85
2023-02-07T12:27:15.886Z,1025.81
2023-02-07T12:28:21.260Z,1025.81
2023-02-07T12:29:16.592Z,1025.71
2023-02-07T12:30:16.102Z,1025.74
2023-02-07T12:31:16.679Z,1025.75
2023-02-07T12:32:21.174Z,1025.69
2023-02-07T12:33:17.404Z,1025.65
2023-02-07T12:34:16.620Z,1025.71
2023-02-07T12:35:18.209Z,1025.72
2023-02-07T12:36:17.660Z,1025.66
2023-02-07T12:37:16.830Z,1025.72
2023-02-07T12:38:17.696Z,1025.65
2023-02-07T12:39:17.192Z,1025.61
2023-02-07T12:40:17.447Z,1025.62
2023-02-07T12:41:18.107Z,1025.69
2023-02-07T12:42:18.566Z,1025.69
2023-02-07T12:43:19.306Z,1025.55
2023-02-07T12:44:19.352Z,1025.64
2023-02-07T12:45:18.934Z,1025.57
2023-02-07T12:46:19.037Z,1025.54
2023-02-07T12:47:19.400Z,1025.61
2023-02-07T12:48:21.566Z,1025.54
2023-02-07T12:49:19.214Z,1025.49
2023-02-07T12:50:19.976Z,1025.44
2023-02-07T12:51:19.403Z,1025.44
2023-02-07T12:52:19.718Z,1025.42
2023-02-07T12:53:22.110Z,1025.42
2023-02-07T12:54:20.785Z,1025.45
2023-02-07T12:55:21.028Z,1025.37
2023-02-07T12:56:21.365Z,1025.40
2023-02-07T12:57:23.066Z,1025.37
2023-02-07T12:58:21.016Z,1025.38
2023-02-07T12:59:21.229Z,1025.39
2023-02-07T13:00:22.064Z,1025.40
2023-02-07T13:01:21.708Z,1025.38
2023-02-07T13:02:22.231Z,1025.37
2023-02-07T13:03:21.968Z,1025.40
2023-02-07T13:04:21.898Z,1025.37
2023-02-07T13:05:21.940Z,1025.39
2023-02-07T13:06:22.135Z,1025.40
2023-02-07T13:07:22.353Z,1025.31
2023-02-07T13:08:23.175Z,1025.31
2023-02-07T13:09:22.900Z,1025.40
2023-02-07T13:10:23.052Z,1025.37